sensor_id;sensor_type;location;lat;lon;timestamp;pressure;altitude;pressure_sealevel;temperature;humidity
11124;BME280;5616;42.692;23.312;2023-04-27T00:00:27;94826.06;;;10.15;52.78
11124;BME280;5616;42.692;23.312;2023-04-27T00:02:54;94818.09;;;9.95;53.63
11124;BME280;5616;42.692;23.312;2023-04-27T00:05:21;94837.47;;;10.06;53.49
11124;BME280;5616;42.692;23.312;2023-04-27T00:07:48;94835.34;;;9.95;53.95
11124;BME280;5616;42.692;23.312;2023-04-27T00:10:17;94843.69;;;9.97;52.97
11124;BME280;5616;42.692;23.312;2023-04-27T00:12:44;94837.69;;;9.90;52.94
11124;BME280;5616;42.692;23.312;2023-04-27T00:15:11;94845.59;;;9.88;53.24
11124;BME280;5616;42.692;23.312;2023-04-27T00:17:37;94842.44;;;9.71;54.20
11124;BME280;5616;42.692;23.312;2023-04-27T00:20:05;94832.91;;;9.72;53.40
11124;BME280;5616;42.692;23.312;2023-04-27T00:22:34;94846.25;;;9.75;54.19
11124;BME280;5616;42.692;23.312;2023-04-27T00:25:01;94837.19;;;9.65;54.18
11124;BME280;5616;42.692;23.312;2023-04-27T00:27:29;94851.00;;;9.57;53.68
11124;BME280;5616;42.692;23.312;2023-04-27T00:29:56;94849.31;;;9.50;54.40
11124;BME280;5616;42.692;23.312;2023-04-27T00:32:22;94847.03;;;9.40;54.32
11124;BME280;5616;42.692;23.312;2023-04-27T00:34:50;94841.56;;;9.35;54.18
11124;BME280;5616;42.692;23.312;2023-04-27T00:37:17;94849.84;;;9.31;55.64
11124;BME280;5616;42.692;23.312;2023-04-27T00:39:44;94836.72;;;9.26;54.92
11124;BME280;5616;42.692;23.312;2023-04-27T00:42:12;94845.59;;;9.08;55.72
11124;BME280;5616;42.692;23.312;2023-04-27T00:44:43;94848.25;;;9.00;54.98
11124;BME280;5616;42.692;23.312;2023-04-27T00:47:10;94839.72;;;9.00;55.29
11124;BME280;5616;42.692;23.312;2023-04-27T00:49:38;94843.13;;;9.00;55.19
11124;BME280;5616;42.692;23.312;2023-04-27T00:52:06;94845.16;;;9.05;55.87
11124;BME280;5616;42.692;23.312;2023-04-27T00:54:33;94850.66;;;9.02;54.91
11124;BME280;5616;42.692;23.312;2023-04-27T00:57:00;94855.19;;;9.00;56.86
11124;BME280;5616;42.692;23.312;2023-04-27T00:59:28;94843.28;;;8.99;55.15
11124;BME280;5616;42.692;23.312;2023-04-27T01:01:56;94847.47;;;9.00;56.14
11124;BME280;5616;42.692;23.312;2023-04-27T01:04:23;94849.50;;;9.04;55.15
11124;BME280;5616;42.692;23.312;2023-04-27T01:06:51;94839.81;;;8.92;56.10
11124;BME280;5616;42.692;23.312;2023-04-27T01:09:18;94856.88;;;8.93;55.36
11124;BME280;5616;42.692;23.312;2023-04-27T01:11:44;94866.09;;;8.87;56.69
11124;BME280;5616;42.692;23.312;2023-04-27T01:14:11;94857.22;;;8.90;55.80
11124;BME280;5616;42.692;23.312;2023-04-27T01:16:38;94861.28;;;8.99;55.93
11124;BME280;5616;42.692;23.312;2023-04-27T01:19:09;94855.53;;;8.97;55.55
11124;BME280;5616;42.692;23.312;2023-04-27T01:21:36;94852.69;;;8.92;55.97
11124;BME280;5616;42.692;23.312;2023-04-27T01:24:05;94859.75;;;8.75;56.21
11124;BME280;5616;42.692;23.312;2023-04-27T01:26:32;94861.78;;;8.80;56.40
11124;BME280;5616;42.692;23.312;2023-04-27T01:28:59;94870.44;;;8.87;56.50
11124;BME280;5616;42.692;23.312;2023-04-27T01:31:26;94869.63;;;8.86;56.33
11124;BME280;5616;42.692;23.312;2023-04-27T01:33:54;94872.59;;;8.60;56.90
11124;BME280;5616;42.692;23.312;2023-04-27T01:36:21;94875.19;;;8.60;57.35
11124;BME280;5616;42.692;23.312;2023-04-27T01:38:47;94876.78;;;8.39;58.35
11124;BME280;5616;42.692;23.312;2023-04-27T01:41:15;94885.38;;;8.31;59.00
11124;BME280;5616;42.692;23.312;2023-04-27T01:43:42;94885.44;;;8.15;59.22
11124;BME280;5616;42.692;23.312;2023-04-27T01:46:11;94887.44;;;8.05;58.43
11124;BME280;5616;42.692;23.312;2023-04-27T01:48:39;94884.88;;;8.05;59.45
11124;BME280;5616;42.692;23.312;2023-04-27T01:51:06;94882.72;;;7.86;59.79
11124;BME280;5616;42.692;23.312;2023-04-27T01:53:33;94883.19;;;7.89;59.92
11124;BME280;5616;42.692;23.312;2023-04-27T01:56:00;94881.28;;;7.83;59.85
11124;BME280;5616;42.692;23.312;2023-04-27T01:58:29;94883.94;;;7.98;58.36
11124;BME280;5616;42.692;23.312;2023-04-27T02:00:56;94885.00;;;8.03;59.31
11124;BME280;5616;42.692;23.312;2023-04-27T02:03:23;94880.34;;;8.07;58.11
11124;BME280;5616;42.692;23.312;2023-04-27T02:05:50;94884.47;;;8.16;58.83
11124;BME280;5616;42.692;23.312;2023-04-27T02:08:18;94889.72;;;8.23;58.86
11124;BME280;5616;42.692;23.312;2023-04-27T02:10:44;94888.28;;;7.97;59.28
11124;BME280;5616;42.692;23.312;2023-04-27T02:13:11;94889.47;;;7.87;59.12
11124;BME280;5616;42.692;23.312;2023-04-27T02:15:39;94883.53;;;7.86;59.20
11124;BME280;5616;42.692;23.312;2023-04-27T02:18:06;94882.00;;;8.00;59.24
11124;BME280;5616;42.692;23.312;2023-04-27T02:20:33;94889.72;;;8.00;58.71
11124;BME280;5616;42.692;23.312;2023-04-27T02:23:00;94893.34;;;8.14;58.03
11124;BME280;5616;42.692;23.312;2023-04-27T02:25:27;94891.53;;;8.14;57.99
11124;BME280;5616;42.692;23.312;2023-04-27T02:27:54;94894.88;;;8.23;57.92
11124;BME280;5616;42.692;23.312;2023-04-27T02:30:20;94888.47;;;8.27;57.10
11124;BME280;5616;42.692;23.312;2023-04-27T02:32:49;94891.66;;;8.29;57.48
11124;BME280;5616;42.692;23.312;2023-04-27T02:35:15;94892.91;;;8.33;57.76
11124;BME280;5616;42.692;23.312;2023-04-27T02:37:42;94895.34;;;8.26;57.49
11124;BME280;5616;42.692;23.312;2023-04-27T02:40:09;94896.47;;;8.24;57.62
11124;BME280;5616;42.692;23.312;2023-04-27T02:42:37;94894.06;;;8.22;57.69
11124;BME280;5616;42.692;23.312;2023-04-27T02:45:05;94904.00;;;8.25;57.81
11124;BME280;5616;42.692;23.312;2023-04-27T02:47:32;94892.63;;;8.28;57.33
11124;BME280;5616;42.692;23.312;2023-04-27T02:50:00;94897.41;;;8.31;56.01
11124;BME280;5616;42.692;23.312;2023-04-27T02:52:32;94904.00;;;8.25;55.49
11124;BME280;5616;42.692;23.312;2023-04-27T02:54:59;94899.84;;;8.24;56.99
11124;BME280;5616;42.692;23.312;2023-04-27T02:57:26;94898.28;;;8.15;57.14
11124;BME280;5616;42.692;23.312;2023-04-27T02:59:53;94898.28;;;8.15;56.63
11124;BME280;5616;42.692;23.312;2023-04-27T03:02:20;94909.00;;;7.96;56.88
11124;BME280;5616;42.692;23.312;2023-04-27T03:04:51;94904.75;;;8.11;56.62
11124;BME280;5616;42.692;23.312;2023-04-27T03:07:19;94908.59;;;8.15;56.75
11124;BME280;5616;42.692;23.312;2023-04-27T03:09:46;94906.81;;;8.16;56.42
11124;BME280;5616;42.692;23.312;2023-04-27T03:12:13;94908.06;;;8.20;56.52
11124;BME280;5616;42.692;23.312;2023-04-27T03:14:40;94912.91;;;8.15;56.20
11124;BME280;5616;42.692;23.312;2023-04-27T03:17:06;94916.59;;;8.20;56.02
11124;BME280;5616;42.692;23.312;2023-04-27T03:19:33;94925.91;;;8.21;56.98
11124;BME280;5616;42.692;23.312;2023-04-27T03:22:00;94921.91;;;8.19;56.54
11124;BME280;5616;42.692;23.312;2023-04-27T03:24:28;94915.16;;;8.18;57.36
11124;BME280;5616;42.692;23.312;2023-04-27T03:26:55;94921.91;;;8.19;56.64
11124;BME280;5616;42.692;23.312;2023-04-27T03:29:22;94928.47;;;8.21;55.95
11124;BME280;5616;42.692;23.312;2023-04-27T03:31:48;94931.72;;;8.15;57.24
11124;BME280;5616;42.692;23.312;2023-04-27T03:34:15;94934.28;;;8.15;56.29
11124;BME280;5616;42.692;23.312;2023-04-27T03:36:42;94936.25;;;8.13;57.66
11124;BME280;5616;42.692;23.312;2023-04-27T03:39:09;94939.44;;;8.15;56.96
11124;BME280;5616;42.692;23.312;2023-04-27T03:41:37;94942.63;;;8.17;56.42
11124;BME280;5616;42.692;23.312;2023-04-27T03:44:04;94939.81;;;8.04;56.93
11124;BME280;5616;42.692;23.312;2023-04-27T03:46:32;94938.34;;;8.10;57.39
11124;BME280;5616;42.692;23.312;2023-04-27T03:48:59;94938.81;;;8.13;57.71
11124;BME280;5616;42.692;23.312;2023-04-27T03:51:26;94947.44;;;8.20;56.65
11124;BME280;5616;42.692;23.312;2023-04-27T03:53:53;94949.69;;;8.23;55.96
11124;BME280;5616;42.692;23.312;2023-04-27T03:56:20;94945.97;;;8.26;56.71
11124;BME280;5616;42.692;23.312;2023-04-27T03:58:48;94952.25;;;8.31;56.67
11124;BME280;5616;42.692;23.312;2023-04-27T04:01:17;94946.91;;;8.33;55.53
11124;BME280;5616;42.692;23.312;2023-04-27T04:03:44;94954.81;;;8.31;56.18
11124;BME280;5616;42.692;23.312;2023-04-27T04:06:12;94955.34;;;8.27;55.45
11124;BME280;5616;42.692;23.312;2023-04-27T04:08:39;94959.63;;;8.26;56.26
11124;BME280;5616;42.692;23.312;2023-04-27T04:11:05;94965.44;;;8.28;55.37
11124;BME280;5616;42.692;23.312;2023-04-27T04:13:34;94969.44;;;8.31;56.04
11124;BME280;5616;42.692;23.312;2023-04-27T04:16:04;94975.72;;;8.28;55.37
11124;BME280;5616;42.692;23.312;2023-04-27T04:18:32;94974.97;;;8.12;56.64
11124;BME280;5616;42.692;23.312;2023-04-27T04:21:00;94976.09;;;8.09;56.18
11124;BME280;5616;42.692;23.312;2023-04-27T04:23:26;94984.22;;;7.98;56.61
11124;BME280;5616;42.692;23.312;2023-04-27T04:25:54;94985.78;;;7.99;56.98
11124;BME280;5616;42.692;23.312;2023-04-27T04:28:23;94983.22;;;7.99;57.21
11124;BME280;5616;42.692;23.312;2023-04-27T04:30:50;94984.56;;;7.87;56.48
11124;BME280;5616;42.692;23.312;2023-04-27T04:33:18;94998.53;;;7.92;57.63
11124;BME280;5616;42.692;23.312;2023-04-27T04:35:45;94993.53;;;7.91;55.52
11124;BME280;5616;42.692;23.312;2023-04-27T04:38:12;94995.47;;;7.89;56.91
11124;BME280;5616;42.692;23.312;2023-04-27T04:40:39;94995.97;;;7.92;56.21
11124;BME280;5616;42.692;23.312;2023-04-27T04:43:08;94993.03;;;7.95;56.40
11124;BME280;5616;42.692;23.312;2023-04-27T04:45:35;94995.47;;;7.89;56.29
11124;BME280;5616;42.692;23.312;2023-04-27T04:48:02;94997.72;;;7.92;57.12
11124;BME280;5616;42.692;23.312;2023-04-27T04:50:30;95006.69;;;7.96;57.87
11124;BME280;5616;42.692;23.312;2023-04-27T04:52:58;95015.34;;;8.11;57.08
11124;BME280;5616;42.692;23.312;2023-04-27T04:55:25;95005.81;;;8.12;56.46
11124;BME280;5616;42.692;23.312;2023-04-27T04:57:53;95011.94;;;8.19;55.90
11124;BME280;5616;42.692;23.312;2023-04-27T05:00:20;95018.66;;;8.28;56.43
11124;BME280;5616;42.692;23.312;2023-04-27T05:02:47;95017.91;;;8.50;55.66
11124;BME280;5616;42.692;23.312;2023-04-27T05:05:14;95019.91;;;8.63;55.29
11124;BME280;5616;42.692;23.312;2023-04-27T05:07:42;95023.34;;;8.78;54.38
11124;BME280;5616;42.692;23.312;2023-04-27T05:10:09;95022.22;;;8.80;56.13
11124;BME280;5616;42.692;23.312;2023-04-27T05:12:36;95027.69;;;8.54;54.79
11124;BME280;5616;42.692;23.312;2023-04-27T05:15:04;95029.81;;;8.74;54.53
11124;BME280;5616;42.692;23.312;2023-04-27T05:17:31;95022.38;;;9.01;54.13
11124;BME280;5616;42.692;23.312;2023-04-27T05:19:57;95027.38;;;9.03;54.62
11124;BME280;5616;42.692;23.312;2023-04-27T05:22:25;95028.91;;;9.35;53.37
11124;BME280;5616;42.692;23.312;2023-04-27T05:24:53;95029.81;;;9.56;52.17
11124;BME280;5616;42.692;23.312;2023-04-27T05:27:20;95029.56;;;9.66;52.86
11124;BME280;5616;42.692;23.312;2023-04-27T05:29:47;95030.00;;;9.69;52.18
11124;BME280;5616;42.692;23.312;2023-04-27T05:32:13;95028.75;;;9.80;53.21
11124;BME280;5616;42.692;23.312;2023-04-27T05:34:40;95037.84;;;9.91;52.18
11124;BME280;5616;42.692;23.312;2023-04-27T05:37:08;95040.13;;;9.56;52.39
11124;BME280;5616;42.692;23.312;2023-04-27T05:39:36;95030.47;;;9.58;53.23
11124;BME280;5616;42.692;23.312;2023-04-27T05:42:04;95032.66;;;9.61;52.75
11124;BME280;5616;42.692;23.312;2023-04-27T05:44:31;95035.25;;;9.76;52.41
11124;BME280;5616;42.692;23.312;2023-04-27T05:46:58;95034.13;;;9.78;53.30
11124;BME280;5616;42.692;23.312;2023-04-27T05:49:24;95046.19;;;9.63;52.16
11124;BME280;5616;42.692;23.312;2023-04-27T05:51:51;95031.97;;;9.67;52.58
11124;BME280;5616;42.692;23.312;2023-04-27T05:54:18;95044.84;;;9.67;53.14
11124;BME280;5616;42.692;23.312;2023-04-27T05:56:45;95044.81;;;9.90;52.80
11124;BME280;5616;42.692;23.312;2023-04-27T05:59:13;95039.03;;;10.17;51.99
11124;BME280;5616;42.692;23.312;2023-04-27T06:01:40;95045.78;;;10.33;51.15
11124;BME280;5616;42.692;23.312;2023-04-27T06:04:07;95042.19;;;10.49;50.40
11124;BME280;5616;42.692;23.312;2023-04-27T06:06:33;95047.91;;;10.59;50.33
11124;BME280;5616;42.692;23.312;2023-04-27T06:09:00;95044.78;;;10.84;48.95
11124;BME280;5616;42.692;23.312;2023-04-27T06:11:27;95038.03;;;10.83;48.76
11124;BME280;5616;42.692;23.312;2023-04-27T06:13:54;95041.97;;;11.00;48.71
11124;BME280;5616;42.692;23.312;2023-04-27T06:16:22;95051.25;;;10.74;50.19
11124;BME280;5616;42.692;23.312;2023-04-27T06:18:49;95046.38;;;10.50;50.77
11124;BME280;5616;42.692;23.312;2023-04-27T06:21:16;95039.75;;;10.76;50.17
11124;BME280;5616;42.692;23.312;2023-04-27T06:23:43;95038.75;;;10.98;48.71
11124;BME280;5616;42.692;23.312;2023-04-27T06:26:10;95038.03;;;11.26;48.67
11124;BME280;5616;42.692;23.312;2023-04-27T06:28:37;95030.72;;;11.57;48.07
11124;BME280;5616;42.692;23.312;2023-04-27T06:31:04;95030.03;;;10.99;49.50
11124;BME280;5616;42.692;23.312;2023-04-27T06:33:32;95042.16;;;11.20;50.14
11124;BME280;5616;42.692;23.312;2023-04-27T06:35:59;95025.69;;;11.49;48.01
11124;BME280;5616;42.692;23.312;2023-04-27T06:38:26;95036.34;;;11.88;48.13
11124;BME280;5616;42.692;23.312;2023-04-27T06:40:53;95027.81;;;12.22;46.20
11124;BME280;5616;42.692;23.312;2023-04-27T06:43:20;95034.88;;;12.48;45.65
11124;BME280;5616;42.692;23.312;2023-04-27T06:45:47;95025.84;;;12.91;44.90
11124;BME280;5616;42.692;23.312;2023-04-27T06:48:14;95027.25;;;13.00;45.03
11124;BME280;5616;42.692;23.312;2023-04-27T06:50:43;95027.84;;;13.02;43.62
11124;BME280;5616;42.692;23.312;2023-04-27T06:53:10;95031.41;;;12.88;44.19
11124;BME280;5616;42.692;23.312;2023-04-27T06:55:37;95024.28;;;13.03;43.44
11124;BME280;5616;42.692;23.312;2023-04-27T06:58:04;95020.53;;;13.38;43.72
11124;BME280;5616;42.692;23.312;2023-04-27T07:00:31;95009.66;;;14.20;41.47
11124;BME280;5616;42.692;23.312;2023-04-27T07:02:58;95012.41;;;14.89;40.19
11124;BME280;5616;42.692;23.312;2023-04-27T07:05:24;95018.09;;;15.04;39.82
11124;BME280;5616;42.692;23.312;2023-04-27T07:07:53;95006.88;;;14.73;39.86
11124;BME280;5616;42.692;23.312;2023-04-27T07:10:20;95009.38;;;14.54;40.21
11124;BME280;5616;42.692;23.312;2023-04-27T07:12:46;95010.00;;;14.50;40.47
11124;BME280;5616;42.692;23.312;2023-04-27T07:15:13;95006.81;;;14.48;39.89
11124;BME280;5616;42.692;23.312;2023-04-27T07:17:40;95016.47;;;14.21;40.94
11124;BME280;5616;42.692;23.312;2023-04-27T07:20:08;95010.81;;;14.31;40.83
11124;BME280;5616;42.692;23.312;2023-04-27T07:22:34;95012.03;;;14.28;40.43
11124;BME280;5616;42.692;23.312;2023-04-27T07:25:03;95012.94;;;14.60;39.66
11124;BME280;5616;42.692;23.312;2023-04-27T07:27:30;95007.41;;;15.50;37.92
11124;BME280;5616;42.692;23.312;2023-04-27T07:29:57;94998.94;;;15.30;37.81
11124;BME280;5616;42.692;23.312;2023-04-27T07:32:24;95004.91;;;16.05;36.15
11124;BME280;5616;42.692;23.312;2023-04-27T07:34:54;95002.78;;;16.38;34.85
11124;BME280;5616;42.692;23.312;2023-04-27T07:37:21;95014.00;;;16.57;35.03
11124;BME280;5616;42.692;23.312;2023-04-27T07:39:49;95002.28;;;17.48;33.95
11124;BME280;5616;42.692;23.312;2023-04-27T07:42:18;95009.72;;;18.21;32.16
11124;BME280;5616;42.692;23.312;2023-04-27T07:44:46;95000.59;;;18.86;30.92
11124;BME280;5616;42.692;23.312;2023-04-27T07:47:14;95003.97;;;18.99;29.92
11124;BME280;5616;42.692;23.312;2023-04-27T07:49:42;95003.91;;;19.55;29.55
11124;BME280;5616;42.692;23.312;2023-04-27T07:52:10;94999.22;;;19.40;29.97
11124;BME280;5616;42.692;23.312;2023-04-27T07:54:36;95000.69;;;20.20;28.59
11124;BME280;5616;42.692;23.312;2023-04-27T07:57:06;94999.06;;;20.79;27.31
11124;BME280;5616;42.692;23.312;2023-04-27T07:59:35;95008.75;;;21.21;26.53
11124;BME280;5616;42.692;23.312;2023-04-27T08:02:01;95009.16;;;21.67;25.60
11124;BME280;5616;42.692;23.312;2023-04-27T08:04:28;94993.97;;;21.74;26.08
11124;BME280;5616;42.692;23.312;2023-04-27T08:06:55;95006.78;;;20.85;27.18
11124;BME280;5616;42.692;23.312;2023-04-27T08:09:22;95008.28;;;20.81;26.82
11124;BME280;5616;42.692;23.312;2023-04-27T08:11:49;95007.22;;;21.25;26.66
11124;BME280;5616;42.692;23.312;2023-04-27T08:14:15;95001.72;;;21.27;26.80
11124;BME280;5616;42.692;23.312;2023-04-27T08:16:44;94999.53;;;21.77;25.29
11124;BME280;5616;42.692;23.312;2023-04-27T08:19:10;94999.78;;;22.13;25.46
11124;BME280;5616;42.692;23.312;2023-04-27T08:21:37;94991.03;;;22.02;24.96
11124;BME280;5616;42.692;23.312;2023-04-27T08:24:05;94983.63;;;23.13;24.90
11124;BME280;5616;42.692;23.312;2023-04-27T08:26:32;94996.88;;;24.14;23.48
11124;BME280;5616;42.692;23.312;2023-04-27T08:28:59;95003.97;;;24.33;31.90
11124;BME280;5616;42.692;23.312;2023-04-27T08:31:26;95005.53;;;24.34;23.15
11124;BME280;5616;42.692;23.312;2023-04-27T08:33:55;95012.56;;;26.01;22.10
11124;BME280;5616;42.692;23.312;2023-04-27T08:36:22;94996.53;;;25.59;21.62
11124;BME280;5616;42.692;23.312;2023-04-27T08:38:50;95001.13;;;27.05;21.48
11124;BME280;5616;42.692;23.312;2023-04-27T08:41:18;94995.06;;;27.61;19.73
11124;BME280;5616;42.692;23.312;2023-04-27T08:43:46;94999.31;;;28.40;20.31
11124;BME280;5616;42.692;23.312;2023-04-27T08:46:17;95001.06;;;26.92;20.04
11124;BME280;5616;42.692;23.312;2023-04-27T08:48:45;95000.81;;;24.01;23.78
11124;BME280;5616;42.692;23.312;2023-04-27T08:51:13;95003.66;;;22.52;25.65
11124;BME280;5616;42.692;23.312;2023-04-27T08:53:47;94994.75;;;24.01;23.12
11124;BME280;5616;42.692;23.312;2023-04-27T08:56:14;94993.28;;;22.25;24.90
11124;BME280;5616;42.692;23.312;2023-04-27T08:58:41;94992.63;;;24.03;23.87
11124;BME280;5616;42.692;23.312;2023-04-27T09:01:08;94988.28;;;25.65;22.16
11124;BME280;5616;42.692;23.312;2023-04-27T09:03:35;94995.53;;;23.31;24.79
11124;BME280;5616;42.692;23.312;2023-04-27T09:06:03;94994.38;;;21.29;26.29
11124;BME280;5616;42.692;23.312;2023-04-27T09:08:43;94998.88;;;21.65;26.33
11124;BME280;5616;42.692;23.312;2023-04-27T09:11:10;94988.09;;;21.93;25.13
11124;BME280;5616;42.692;23.312;2023-04-27T09:13:39;94999.59;;;22.81;24.63
11124;BME280;5616;42.692;23.312;2023-04-27T09:16:06;94978.78;;;22.18;24.32
11124;BME280;5616;42.692;23.312;2023-04-27T09:18:35;94990.19;;;20.80;26.78
11124;BME280;5616;42.692;23.312;2023-04-27T09:21:04;94974.56;;;20.08;27.38
11124;BME280;5616;42.692;23.312;2023-04-27T09:23:32;94989.88;;;19.16;29.35
11124;BME280;5616;42.692;23.312;2023-04-27T09:26:02;94988.59;;;18.74;29.57
11124;BME280;5616;42.692;23.312;2023-04-27T09:28:30;94987.13;;;18.03;30.63
11124;BME280;5616;42.692;23.312;2023-04-27T09:31:00;94985.28;;;17.46;32.23
11124;BME280;5616;42.692;23.312;2023-04-27T09:33:29;94984.22;;;17.47;33.45
11124;BME280;5616;42.692;23.312;2023-04-27T09:35:58;94974.41;;;17.95;31.62
11124;BME280;5616;42.692;23.312;2023-04-27T09:38:25;94971.56;;;17.97;31.66
11124;BME280;5616;42.692;23.312;2023-04-27T09:40:53;94973.03;;;17.93;30.77
11124;BME280;5616;42.692;23.312;2023-04-27T09:43:21;94968.38;;;18.06;31.46
11124;BME280;5616;42.692;23.312;2023-04-27T09:45:49;94974.41;;;17.60;33.22
11124;BME280;5616;42.692;23.312;2023-04-27T09:48:16;94968.81;;;17.57;30.85
11124;BME280;5616;42.692;23.312;2023-04-27T09:50:44;94956.91;;;17.84;30.55
11124;BME280;5616;42.692;23.312;2023-04-27T09:53:13;94956.97;;;17.20;32.78
11124;BME280;5616;42.692;23.312;2023-04-27T09:55:45;94962.22;;;17.43;32.57
11124;BME280;5616;42.692;23.312;2023-04-27T09:58:45;94947.84;;;17.63;31.37
11124;BME280;5616;42.692;23.312;2023-04-27T10:01:22;94960.22;;;17.68;34.20
11124;BME280;5616;42.692;23.312;2023-04-27T10:04:01;94950.78;;;17.79;32.17
11124;BME280;5616;42.692;23.312;2023-04-27T10:06:51;94961.22;;;17.55;32.11
11124;BME280;5616;42.692;23.312;2023-04-27T10:09:19;94965.19;;;16.93;33.77
11124;BME280;5616;42.692;23.312;2023-04-27T10:11:49;94968.84;;;16.74;32.65
11124;BME280;5616;42.692;23.312;2023-04-27T10:14:19;94961.09;;;16.97;32.50
11124;BME280;5616;42.692;23.312;2023-04-27T10:16:50;94967.00;;;16.63;32.91
11124;BME280;5616;42.692;23.312;2023-04-27T10:19:18;94962.09;;;16.55;32.86
11124;BME280;5616;42.692;23.312;2023-04-27T10:21:55;94956.03;;;16.73;32.90
11124;BME280;5616;42.692;23.312;2023-04-27T10:24:33;94957.09;;;17.25;31.64
11124;BME280;5616;42.692;23.312;2023-04-27T10:27:02;94954.16;;;17.44;31.17
11124;BME280;5616;42.692;23.312;2023-04-27T10:29:39;94958.34;;;17.34;31.73
11124;BME280;5616;42.692;23.312;2023-04-27T10:32:08;94952.09;;;17.46;32.73
11124;BME280;5616;42.692;23.312;2023-04-27T10:34:35;94955.69;;;17.75;30.52
11124;BME280;5616;42.692;23.312;2023-04-27T10:37:07;94939.66;;;17.95;29.59
11124;BME280;5616;42.692;23.312;2023-04-27T10:39:35;94946.47;;;17.96;30.42
11124;BME280;5616;42.692;23.312;2023-04-27T10:42:03;94951.78;;;17.43;31.28
11124;BME280;5616;42.692;23.312;2023-04-27T10:44:31;94956.88;;;16.55;32.45
11124;BME280;5616;42.692;23.312;2023-04-27T10:47:01;94954.75;;;16.45;34.73
11124;BME280;5616;42.692;23.312;2023-04-27T10:49:29;94958.25;;;16.87;33.77
11124;BME280;5616;42.692;23.312;2023-04-27T10:51:57;94964.31;;;17.11;31.60
11124;BME280;5616;42.692;23.312;2023-04-27T10:54:25;94952.06;;;17.23;30.58
11124;BME280;5616;42.692;23.312;2023-04-27T10:56:53;94948.91;;;17.21;31.39
11124;BME280;5616;42.692;23.312;2023-04-27T10:59:20;94955.44;;;17.00;31.61
11124;BME280;5616;42.692;23.312;2023-04-27T11:01:47;94955.44;;;17.00;32.32
11124;BME280;5616;42.692;23.312;2023-04-27T11:04:17;94947.88;;;16.81;30.46
11124;BME280;5616;42.692;23.312;2023-04-27T11:06:44;94946.75;;;16.77;30.37
11124;BME280;5616;42.692;23.312;2023-04-27T11:09:12;94942.66;;;16.81;30.04
11124;BME280;5616;42.692;23.312;2023-04-27T11:11:43;94929.19;;;16.72;31.35
11124;BME280;5616;42.692;23.312;2023-04-27T11:14:14;94942.78;;;16.74;31.21
11124;BME280;5616;42.692;23.312;2023-04-27T11:16:46;94948.19;;;16.61;33.41
11124;BME280;5616;42.692;23.312;2023-04-27T11:19:13;94953.28;;;16.68;32.16
11124;BME280;5616;42.692;23.312;2023-04-27T11:21:41;94948.13;;;16.79;31.31
11124;BME280;5616;42.692;23.312;2023-04-27T11:24:08;94956.91;;;16.96;31.81
11124;BME280;5616;42.692;23.312;2023-04-27T11:26:35;94948.22;;;17.14;32.00
11124;BME280;5616;42.692;23.312;2023-04-27T11:29:04;94953.69;;;17.24;32.61
11124;BME280;5616;42.692;23.312;2023-04-27T11:31:39;94962.63;;;17.17;31.04
11124;BME280;5616;42.692;23.312;2023-04-27T11:34:06;94961.91;;;17.09;31.43
11124;BME280;5616;42.692;23.312;2023-04-27T11:36:33;94960.94;;;16.81;32.61
11124;BME280;5616;42.692;23.312;2023-04-27T11:39:02;94961.59;;;16.76;32.78
11124;BME280;5616;42.692;23.312;2023-04-27T11:41:34;94950.53;;;16.63;33.96
11124;BME280;5616;42.692;23.312;2023-04-27T11:44:05;94960.03;;;16.39;32.87
11124;BME280;5616;42.692;23.312;2023-04-27T11:46:34;94964.44;;;16.38;33.04
11124;BME280;5616;42.692;23.312;2023-04-27T11:49:03;94962.16;;;16.12;34.21
11124;BME280;5616;42.692;23.312;2023-04-27T11:51:30;94958.91;;;15.99;35.46
11124;BME280;5616;42.692;23.312;2023-04-27T11:54:02;94958.25;;;16.03;33.30
11124;BME280;5616;42.692;23.312;2023-04-27T11:56:37;94964.31;;;16.15;32.19
11124;BME280;5616;42.692;23.312;2023-04-27T11:59:05;94958.25;;;16.03;33.58
11124;BME280;5616;42.692;23.312;2023-04-27T12:01:32;94964.31;;;15.79;35.78
11124;BME280;5616;42.692;23.312;2023-04-27T12:03:59;94962.06;;;15.64;34.10
11124;BME280;5616;42.692;23.312;2023-04-27T12:06:27;94959.09;;;15.61;34.06
11124;BME280;5616;42.692;23.312;2023-04-27T12:08:55;94969.16;;;15.75;34.44
11124;BME280;5616;42.692;23.312;2023-04-27T12:11:25;94958.81;;;15.87;32.81
11124;BME280;5616;42.692;23.312;2023-04-27T12:13:52;94970.47;;;16.03;33.22
11124;BME280;5616;42.692;23.312;2023-04-27T12:16:19;94968.31;;;16.18;33.07
11124;BME280;5616;42.692;23.312;2023-04-27T12:18:46;94962.94;;;16.31;34.13
11124;BME280;5616;42.692;23.312;2023-04-27T12:21:14;94968.69;;;16.03;33.59
11124;BME280;5616;42.692;23.312;2023-04-27T12:23:41;94971.50;;;16.20;33.18
11124;BME280;5616;42.692;23.312;2023-04-27T12:26:08;94970.31;;;16.34;33.67
11124;BME280;5616;42.692;23.312;2023-04-27T12:28:36;94966.28;;;16.56;32.26
11124;BME280;5616;42.692;23.312;2023-04-27T12:31:04;94976.28;;;16.59;32.25
11124;BME280;5616;42.692;23.312;2023-04-27T12:33:31;94967.84;;;16.39;33.82
11124;BME280;5616;42.692;23.312;2023-04-27T12:35:58;94957.31;;;16.16;35.33
11124;BME280;5616;42.692;23.312;2023-04-27T12:38:25;94970.63;;;15.89;33.81
11124;BME280;5616;42.692;23.312;2023-04-27T12:40:52;94974.59;;;16.28;44.43
11124;BME280;5616;42.692;23.312;2023-04-27T12:43:19;94969.41;;;16.10;35.64
11124;BME280;5616;42.692;23.312;2023-04-27T12:45:47;94976.84;;;16.07;34.62
11124;BME280;5616;42.692;23.312;2023-04-27T12:48:14;94976.53;;;15.97;40.44
11124;BME280;5616;42.692;23.312;2023-04-27T12:50:41;94972.22;;;16.27;37.96
11124;BME280;5616;42.692;23.312;2023-04-27T12:53:07;94973.81;;;16.46;36.89
11124;BME280;5616;42.692;23.312;2023-04-27T12:55:34;94970.03;;;16.42;37.05
11124;BME280;5616;42.692;23.312;2023-04-27T12:58:01;94972.06;;;16.40;36.27
11124;BME280;5616;42.692;23.312;2023-04-27T13:00:29;94975.25;;;16.42;33.82
11124;BME280;5616;42.692;23.312;2023-04-27T13:02:57;94977.16;;;16.53;32.05
11124;BME280;5616;42.692;23.312;2023-04-27T13:05:24;94968.31;;;16.54;33.17
11124;BME280;5616;42.692;23.312;2023-04-27T13:07:51;94966.44;;;16.61;32.31